Time,TemperatureF,DewpointF,PressureIn,WindDirection,WindDirectionDegrees,WindSpeedMPH,WindSpeedGustMPH,Humidity,HourlyPrecipIn,Conditions,Clouds,dailyrainin,SoftwareType,DateUTC
2013-02-26 00:05:00,31.5,2.1,23.53,SSE,158,6.5,6.5,28,0.00,,---,0.00,VWS V14.01,2013-02-26 08:05:00,
2013-02-26 00:10:00,32.0,2.6,23.53,South,180,4.0,6.5,28,0.00,,---,0.00,VWS V14.01,2013-02-26 08:10:00,
2013-02-26 00:16:00,32.2,2.8,23.53,SSW,202,4.0,9.4,28,0.00,,---,0.00,VWS V14.01,2013-02-26 08:16:00,
2013-02-26 00:21:00,32.4,2.9,23.53,SE,135,4.9,5.6,28,0.00,,---,0.00,VWS V14.01,2013-02-26 08:21:00,
2013-02-26 00:27:00,32.0,2.6,23.53,South,180,3.8,4.9,28,0.00,,---,0.00,VWS V14.01,2013-02-26 08:27:00,
2013-02-26 00:33:00,31.6,2.3,23.53,South,180,3.4,5.6,28,0.00,,---,0.00,VWS V14.01,2013-02-26 08:33:00,
2013-02-26 00:38:00,31.1,1.8,23.53,SSW,202,2.7,4.9,28,0.00,,---,0.00,VWS V14.01,2013-02-26 08:38:00,
2013-02-26 00:44:00,31.1,1.8,23.53,SSE,158,2.0,4.3,28,0.00,,---,0.00,VWS V14.01,2013-02-26 08:44:00,
2013-02-26 00:49:00,31.8,2.4,23.53,SSE,158,4.9,8.7,28,0.00,,---,0.00,VWS V14.01,2013-02-26 08:49:00,
2013-02-26 00:55:00,31.6,2.3,23.53,SW,225,5.4,5.4,28,0.00,,---,0.00,VWS V14.01,2013-02-26 08:55:00,
2013-02-26 01:00:00,31.5,2.1,23.53,WSW,248,8.1,8.1,28,0.00,,---,0.00,VWS V14.01,2013-02-26 09:00:00,
2013-02-26 01:06:00,31.1,1.8,23.53,SSW,202,5.6,7.8,28,0.00,,---,0.00,VWS V14.01,2013-02-26 09:06:00,
2013-02-26 01:12:00,30.9,1.7,23.53,SSW,202,4.3,5.6,28,0.00,,---,0.00,VWS V14.01,2013-02-26 09:12:00,
2013-02-26 01:17:00,30.6,1.4,23.53,SSE,158,5.6,5.6,28,0.00,,---,0.00,VWS V14.01,2013-02-26 09:17:00,
2013-02-26 01:23:00,30.6,1.4,23.53,SE,135,8.1,8.5,28,0.00,,---,0.00,VWS V14.01,2013-02-26 09:23:00,
2013-02-26 01:29:00,31.1,1.8,23.53,SSE,158,7.8,8.1,28,0.00,,---,0.00,VWS V14.01,2013-02-26 09:29:00,
2013-02-26 01:34:00,31.3,2.0,23.50,SW,225,5.8,5.8,28,0.00,,---,0.00,VWS V14.01,2013-02-26 09:34:00,
2013-02-26 01:40:00,31.1,1.8,23.50,SSE,158,3.4,4.9,28,0.00,,---,0.00,VWS V14.01,2013-02-26 09:40:00,
2013-02-26 01:45:00,30.9,1.7,23.50,WSW,248,3.6,4.3,28,0.00,,---,0.00,VWS V14.01,2013-02-26 09:45:00,
2013-02-26 01:51:00,30.7,1.5,23.50,SSW,202,4.9,5.8,28,0.00,,---,0.00,VWS V14.01,2013-02-26 09:51:00,
2013-02-26 01:57:00,30.4,1.2,23.50,SW,225,4.9,6.3,28,0.00,,---,0.00,VWS V14.01,2013-02-26 09:57:00,
2013-02-26 02:02:00,30.0,0.9,23.50,WSW,248,5.8,6.0,28,0.00,,---,0.00,VWS V14.01,2013-02-26 10:02:00,
2013-02-26 02:08:00,29.7,0.6,23.50,SSW,202,2.7,3.6,28,0.00,,---,0.00,VWS V14.01,2013-02-26 10:08:00,
2013-02-26 02:13:00,29.5,0.4,23.50,SSW,202,3.8,4.9,28,0.00,,---,0.00,VWS V14.01,2013-02-26 10:13:00,
2013-02-26 02:19:00,29.1,1.6,23.50,SSE,158,6.3,7.4,30,0.00,,---,0.00,VWS V14.01,2013-02-26 10:19:00,
2013-02-26 02:25:00,28.8,1.2,23.50,SE,135,4.3,8.5,30,0.00,,---,0.00,VWS V14.01,2013-02-26 10:25:00,
2013-02-26 02:30:00,28.0,1.3,23.50,SSE,158,3.8,4.0,31,0.00,,---,0.00,VWS V14.01,2013-02-26 10:30:00,
2013-02-26 02:36:00,27.5,0.8,23.50,WSW,248,2.7,6.3,31,0.00,,---,0.00,VWS V14.01,2013-02-26 10:36:00,
2013-02-26 02:41:00,27.5,0.8,23.50,SSW,202,2.7,3.6,31,0.00,,---,0.00,VWS V14.01,2013-02-26 10:41:00,
2013-02-26 02:46:00,27.3,0.7,23.50,SW,225,5.6,5.8,31,0.00,,---,0.00,VWS V14.01,2013-02-26 10:46:00,
2013-02-26 02:51:00,27.3,0.7,23.48,SW,225,1.6,5.4,31,0.00,,---,0.00,VWS V14.01,2013-02-26 10:51:00,
2013-02-26 02:57:00,27.3,0.7,23.48,SSE,158,4.3,4.9,31,0.00,,---,0.00,VWS V14.01,2013-02-26 10:57:00,
2013-02-26 03:02:00,27.5,0.8,23.48,SSE,158,2.9,2.9,31,0.00,,---,0.00,VWS V14.01,2013-02-26 11:02:00,
2013-02-26 03:08:00,27.5,0.8,23.50,East,90,1.1,1.1,31,0.00,,---,0.00,VWS V14.01,2013-02-26 11:08:00,
2013-02-26 03:14:00,27.3,0.7,23.50,SSW,202,4.9,5.4,31,0.00,,---,0.00,VWS V14.01,2013-02-26 11:14:00,
2013-02-26 03:19:00,27.7,1.0,23.48,SSW,202,0.0,2.9,31,0.00,,---,0.00,VWS V14.01,2013-02-26 11:19:00,
2013-02-26 03:25:00,27.5,0.8,23.48,SSW,202,4.7,5.4,31,0.00,,---,0.00,VWS V14.01,2013-02-26 11:25:00,
2013-02-26 03:30:00,28.2,1.5,23.48,SE,135,2.2,4.0,31,0.00,,---,0.00,VWS V14.01,2013-02-26 11:30:00,
2013-02-26 03:36:00,28.4,1.6,23.48,SE,135,4.0,4.3,31,0.00,,---,0.00,VWS V14.01,2013-02-26 11:36:00,
2013-02-26 03:42:00,27.3,0.7,23.48,East,90,2.5,2.5,31,0.00,,---,0.00,VWS V14.01,2013-02-26 11:42:00,
2013-02-26 03:47:00,26.8,0.2,23.48,SSE,158,3.1,3.1,31,0.00,,---,0.00,VWS V14.01,2013-02-26 11:47:00,
2013-02-26 03:53:00,26.1,0.2,23.48,WNW,292,2.0,2.5,32,0.00,,---,0.00,VWS V14.01,2013-02-26 11:53:00,
2013-02-26 03:58:00,25.7,-0.1,23.48,SSE,158,2.5,2.5,32,0.00,,---,0.00,VWS V14.01,2013-02-26 11:58:00,
2013-02-26 04:04:00,26.2,0.4,23.48,North,0,3.8,3.8,32,0.00,,---,0.00,VWS V14.01,2013-02-26 12:04:00,
2013-02-26 04:09:00,26.1,0.2,23.48,SSW,202,2.9,3.4,32,0.00,,---,0.00,VWS V14.01,2013-02-26 12:09:00,
2013-02-26 04:15:00,25.3,-0.4,23.48,SW,225,1.3,3.1,32,0.00,,---,0.00,VWS V14.01,2013-02-26 12:15:00,
2013-02-26 04:21:00,24.6,-0.4,23.48,NE,45,1.1,2.5,33,0.00,,---,0.00,VWS V14.01,2013-02-26 12:21:00,
2013-02-26 04:26:00,24.3,-0.7,23.48,SSW,202,1.3,2.0,33,0.00,,---,0.00,VWS V14.01,2013-02-26 12:26:00,
2013-02-26 04:32:00,23.7,-1.2,23.48,ENE,68,1.6,1.6,33,0.00,,---,0.00,VWS V14.01,2013-02-26 12:32:00,
2013-02-26 04:38:00,23.4,-1.5,23.48,NNE,22,2.0,2.0,33,0.00,,---,0.00,VWS V14.01,2013-02-26 12:38:00,
2013-02-26 04:43:00,23.2,-1.0,23.48,SSW,202,0.0,0.9,34,0.00,,---,0.00,VWS V14.01,2013-02-26 12:43:00,
2013-02-26 04:49:00,23.0,-1.2,23.48,SSE,158,1.3,1.3,34,0.00,,---,0.00,VWS V14.01,2013-02-26 12:49:00,
2013-02-26 04:54:00,22.8,-0.7,23.48,SSW,202,0.0,0.0,35,0.00,,---,0.00,VWS V14.01,2013-02-26 12:54:00,
2013-02-26 04:59:00,22.5,-1.0,23.48,South,180,0.0,0.0,35,0.00,,---,0.00,VWS V14.01,2013-02-26 12:59:00,
2013-02-26 05:04:00,22.1,-1.4,23.48,SSE,158,0.0,0.0,35,0.00,,---,0.00,VWS V14.01,2013-02-26 13:04:00,
2013-02-26 05:09:00,21.9,-1.5,23.48,North,0,0.0,2.7,35,0.00,,---,0.00,VWS V14.01,2013-02-26 13:09:00,
2013-02-26 05:14:00,21.7,-1.1,23.48,NNW,338,0.0,0.0,36,0.00,,---,0.00,VWS V14.01,2013-02-26 13:14:00,
2013-02-26 05:20:00,21.4,-0.8,23.50,NNE,22,0.0,0.0,37,0.00,,---,0.00,VWS V14.01,2013-02-26 13:20:00,
2013-02-26 05:25:00,21.2,-0.4,23.50,ENE,68,2.9,2.9,38,0.00,,---,0.00,VWS V14.01,2013-02-26 13:25:00,
2013-02-26 05:31:00,21.4,1.4,23.50,ENE,68,3.4,3.4,41,0.00,,---,0.00,VWS V14.01,2013-02-26 13:31:00,
2013-02-26 05:36:00,21.6,2.0,23.50,SSW,202,2.2,2.7,42,0.00,,---,0.00,VWS V14.01,2013-02-26 13:36:00,
2013-02-26 05:42:00,21.4,1.9,23.50,WSW,248,0.0,2.0,42,0.00,,---,0.00,VWS V14.01,2013-02-26 13:42:00,
2013-02-26 05:47:00,21.2,2.2,23.50,ENE,68,0.0,0.0,43,0.00,,---,0.00,VWS V14.01,2013-02-26 13:47:00,
2013-02-26 05:53:00,20.7,1.7,23.48,WSW,248,2.0,2.9,43,0.00,,---,0.00,VWS V14.01,2013-02-26 13:53:00,
2013-02-26 05:59:00,20.3,1.4,23.48,SE,135,0.0,0.0,43,0.00,,---,0.00,VWS V14.01,2013-02-26 13:59:00,
2013-02-26 06:04:00,20.3,1.4,23.48,SSE,158,0.0,0.0,43,0.00,,---,0.00,VWS V14.01,2013-02-26 14:04:00,
2013-02-26 06:10:00,19.9,1.1,23.48,ENE,68,0.0,0.0,43,0.00,,---,0.00,VWS V14.01,2013-02-26 14:10:00,
2013-02-26 06:16:00,19.9,1.5,23.48,ENE,68,2.0,2.7,44,0.00,,---,0.00,VWS V14.01,2013-02-26 14:16:00,
2013-02-26 06:21:00,19.9,1.5,23.48,NNE,22,0.0,0.0,44,0.00,,---,0.00,VWS V14.01,2013-02-26 14:21:00,
2013-02-26 06:27:00,19.9,1.5,23.48,SSW,202,0.0,0.0,44,0.00,,---,0.00,VWS V14.01,2013-02-26 14:27:00,
2013-02-26 06:32:00,19.8,1.9,23.48,WSW,248,2.7,2.9,45,0.00,,---,0.00,VWS V14.01,2013-02-26 14:32:00,
2013-02-26 06:38:00,19.2,1.8,23.48,WSW,248,0.0,0.0,46,0.00,,---,0.00,VWS V14.01,2013-02-26 14:38:00,
2013-02-26 06:44:00,19.2,2.3,23.48,NNE,22,1.1,1.1,47,0.00,,---,0.00,VWS V14.01,2013-02-26 14:44:00,
2013-02-26 06:49:00,19.2,2.3,23.48,NE,45,2.5,2.7,47,0.00,,---,0.00,VWS V14.01,2013-02-26 14:49:00,
2013-02-26 06:55:00,19.4,2.9,23.48,NNE,22,0.0,0.0,48,0.00,,---,0.00,VWS V14.01,2013-02-26 14:55:00,
2013-02-26 07:00:00,19.6,2.6,23.48,West,270,0.0,2.5,47,0.00,,---,0.00,VWS V14.01,2013-02-26 15:00:00,
2013-02-26 07:06:00,19.6,3.1,23.50,NNW,338,0.0,1.1,48,0.00,,---,0.00,VWS V14.01,2013-02-26 15:06:00,
2013-02-26 07:11:00,19.6,3.1,23.50,NE,45,1.3,1.6,48,0.00,,---,0.00,VWS V14.01,2013-02-26 15:11:00,
2013-02-26 07:17:00,20.3,3.8,23.50,NE,45,1.6,2.7,48,0.00,,---,0.00,VWS V14.01,2013-02-26 15:17:00,
2013-02-26 07:22:00,21.4,4.8,23.50,NE,45,0.0,0.0,48,0.00,,---,0.00,VWS V14.01,2013-02-26 15:22:00,
2013-02-26 07:27:00,21.9,6.1,23.50,NE,45,0.0,0.0,50,0.00,,---,0.00,VWS V14.01,2013-02-26 15:27:00,
2013-02-26 07:32:00,23.0,7.1,23.50,WSW,248,0.0,2.0,50,0.00,,---,0.00,VWS V14.01,2013-02-26 15:32:00,
2013-02-26 07:38:00,25.9,10.3,23.50,ESE,112,0.0,0.0,51,0.00,,---,0.00,VWS V14.01,2013-02-26 15:38:00,
2013-02-26 07:43:00,27.9,12.1,23.50,NE,45,3.4,4.3,51,0.00,,---,0.00,VWS V14.01,2013-02-26 15:43:00,
2013-02-26 07:48:00,30.9,13.6,23.50,NNE,22,2.9,3.6,48,0.00,,---,0.00,VWS V14.01,2013-02-26 15:48:00,
2013-02-26 07:53:00,34.0,13.3,23.50,NNE,22,4.3,6.5,42,0.00,,---,0.00,VWS V14.01,2013-02-26 15:53:00,
2013-02-26 07:59:00,36.5,13.9,23.50,North,0,4.0,6.5,39,0.00,,---,0.00,VWS V14.01,2013-02-26 15:59:00,
2013-02-26 08:04:00,37.6,11.8,23.50,NNE,22,8.5,8.5,34,0.00,,---,0.00,VWS V14.01,2013-02-26 16:04:00,
2013-02-26 08:09:00,38.5,11.9,23.50,ENE,68,7.2,7.2,33,0.00,,---,0.00,VWS V14.01,2013-02-26 16:09:00,
2013-02-26 08:15:00,38.8,10.8,23.50,NNE,22,5.6,5.6,31,0.00,,---,0.00,VWS V14.01,2013-02-26 16:15:00,
2013-02-26 08:20:00,39.4,11.3,23.50,NNE,22,3.6,5.6,31,0.00,,---,0.00,VWS V14.01,2013-02-26 16:20:00,
2013-02-26 08:25:00,39.4,10.5,23.50,East,90,7.6,9.4,30,0.00,,---,0.00,VWS V14.01,2013-02-26 16:25:00,
2013-02-26 08:30:00,39.9,11.0,23.50,NE,45,10.3,10.3,30,0.00,,---,0.00,VWS V14.01,2013-02-26 16:30:00,
2013-02-26 08:35:00,39.9,11.0,23.53,NNW,338,4.3,5.8,30,0.00,,---,0.00,VWS V14.01,2013-02-26 16:35:00,
2013-02-26 08:41:00,40.3,11.3,23.53,North,0,4.9,8.1,30,0.00,,---,0.00,VWS V14.01,2013-02-26 16:41:00,
2013-02-26 08:47:00,40.8,11.8,23.53,NE,45,6.3,9.6,30,0.00,,---,0.00,VWS V14.01,2013-02-26 16:47:00,
2013-02-26 08:52:00,41.2,11.4,23.53,ENE,68,4.9,7.4,29,0.00,,---,0.00,VWS V14.01,2013-02-26 16:52:00,
2013-02-26 08:57:00,41.2,11.4,23.53,East,90,4.9,6.0,29,0.00,,---,0.00,VWS V14.01,2013-02-26 16:57:00,
2013-02-26 09:02:00,41.7,11.8,23.53,NNE,22,9.6,9.6,29,0.00,,---,0.00,VWS V14.01,2013-02-26 17:02:00,
2013-02-26 09:08:00,41.7,11.8,23.53,NNE,22,2.9,6.9,29,0.00,,---,0.00,VWS V14.01,2013-02-26 17:08:00,
2013-02-26 09:13:00,41.5,11.7,23.53,NE,45,6.5,9.8,29,0.00,,---,0.00,VWS V14.01,2013-02-26 17:13:00,
2013-02-26 09:19:00,41.4,11.5,23.56,North,0,3.8,7.4,29,0.00,,---,0.00,VWS V14.01,2013-02-26 17:19:00,
2013-02-26 09:24:00,41.9,12.0,23.56,NE,45,5.8,6.9,29,0.00,,---,0.00,VWS V14.01,2013-02-26 17:24:00,
2013-02-26 09:30:00,41.4,11.5,23.56,NE,45,8.1,9.8,29,0.00,,---,0.00,VWS V14.01,2013-02-26 17:30:00,
2013-02-26 09:35:00,41.0,11.2,23.56,NNE,22,10.3,10.3,29,0.00,,---,0.00,VWS V14.01,2013-02-26 17:35:00,
2013-02-26 09:40:00,41.4,11.5,23.56,North,0,5.8,7.4,29,0.00,,---,0.00,VWS V14.01,2013-02-26 17:40:00,
2013-02-26 09:46:00,41.2,11.4,23.56,ENE,68,5.6,8.7,29,0.00,,---,0.00,VWS V14.01,2013-02-26 17:46:00,
2013-02-26 09:51:00,40.5,11.5,23.56,ENE,68,10.5,10.5,30,0.00,,---,0.00,VWS V14.01,2013-02-26 17:51:00,
2013-02-26 09:56:00,39.9,11.0,23.56,NNE,22,7.2,7.6,30,0.00,,---,0.00,VWS V14.01,2013-02-26 17:56:00,
2013-02-26 10:01:00,39.7,10.9,23.56,NE,45,6.5,7.8,30,0.00,,---,0.00,VWS V14.01,2013-02-26 18:01:00,
2013-02-26 10:06:00,39.9,11.0,23.56,NNE,22,10.1,10.1,30,0.00,,---,0.00,VWS V14.01,2013-02-26 18:06:00,
2013-02-26 10:12:00,39.7,10.9,23.56,NNE,22,7.4,11.0,30,0.00,,---,0.00,VWS V14.01,2013-02-26 18:12:00,
2013-02-26 10:17:00,39.6,10.7,23.56,ENE,68,7.2,12.5,30,0.00,,---,0.00,VWS V14.01,2013-02-26 18:17:00,
2013-02-26 10:22:00,39.6,10.7,23.59,NNW,338,5.4,8.7,30,0.00,,---,0.00,VWS V14.01,2013-02-26 18:22:00,
2013-02-26 10:27:00,39.4,10.5,23.59,NE,45,5.6,9.8,30,0.00,,---,0.00,VWS V14.01,2013-02-26 18:27:00,
2013-02-26 10:33:00,39.9,11.0,23.59,North,0,5.8,5.8,30,0.00,,---,0.00,VWS V14.01,2013-02-26 18:33:00,
2013-02-26 10:39:00,39.9,11.0,23.59,NNW,338,5.8,10.1,30,0.00,,---,0.00,VWS V14.01,2013-02-26 18:39:00,
2013-02-26 10:44:00,39.9,10.2,23.59,North,0,4.9,8.5,29,0.00,,---,0.00,VWS V14.01,2013-02-26 18:44:00,
2013-02-26 10:50:00,39.9,10.2,23.59,NNE,22,8.5,8.5,29,0.00,,---,0.00,VWS V14.01,2013-02-26 18:50:00,
2013-02-26 10:55:00,40.1,10.4,23.59,North,0,6.0,10.7,29,0.00,,---,0.00,VWS V14.01,2013-02-26 18:55:00,
2013-02-26 11:01:00,40.5,11.5,23.59,NNW,338,4.9,7.4,30,0.00,,---,0.00,VWS V14.01,2013-02-26 19:01:00,
2013-02-26 11:06:00,40.6,11.6,23.56,NE,45,10.7,10.7,30,0.00,,---,0.00,VWS V14.01,2013-02-26 19:06:00,
2013-02-26 11:11:00,40.5,11.5,23.56,NE,45,5.6,7.4,30,0.00,,---,0.00,VWS V14.01,2013-02-26 19:11:00,
2013-02-26 11:17:00,40.3,11.3,23.56,NNE,22,3.4,7.4,30,0.00,,---,0.00,VWS V14.01,2013-02-26 19:17:00,
2013-02-26 11:22:00,40.5,10.7,23.56,North,0,8.1,8.1,29,0.00,,---,0.00,VWS V14.01,2013-02-26 19:22:00,
2013-02-26 11:27:00,40.8,11.8,23.56,NNW,338,5.6,5.6,30,0.00,,---,0.00,VWS V14.01,2013-02-26 19:27:00,
2013-02-26 11:33:00,40.3,10.6,23.56,NW,315,4.0,5.8,29,0.00,,---,0.00,VWS V14.01,2013-02-26 19:33:00,
2013-02-26 11:39:00,41.0,11.2,23.56,ENE,68,5.8,8.5,29,0.00,,---,0.00,VWS V14.01,2013-02-26 19:39:00,
2013-02-26 11:44:00,41.2,11.4,23.56,NE,45,3.4,3.6,29,0.00,,---,0.00,VWS V14.01,2013-02-26 19:44:00,
2013-02-26 11:50:00,41.0,11.2,23.56,NE,45,5.4,7.6,29,0.00,,---,0.00,VWS V14.01,2013-02-26 19:50:00,
2013-02-26 11:55:00,40.5,11.5,23.56,NNE,22,6.0,6.0,30,0.00,,---,0.00,VWS V14.01,2013-02-26 19:55:00,
2013-02-26 12:01:00,41.0,11.2,23.56,NNW,338,6.9,7.2,29,0.00,,---,0.00,VWS V14.01,2013-02-26 20:01:00,
2013-02-26 12:06:00,40.6,11.6,23.56,NNE,22,6.5,8.7,30,0.00,,---,0.00,VWS V14.01,2013-02-26 20:06:00,
2013-02-26 12:11:00,41.2,11.4,23.56,NNW,338,7.4,7.4,29,0.00,,---,0.00,VWS V14.01,2013-02-26 20:11:00,
2013-02-26 12:17:00,40.8,11.8,23.56,North,0,9.2,12.5,30,0.00,,---,0.00,VWS V14.01,2013-02-26 20:17:00,
2013-02-26 12:22:00,40.6,11.6,23.53,NE,45,8.1,8.1,30,0.00,,---,0.00,VWS V14.01,2013-02-26 20:22:00,
2013-02-26 12:28:00,41.2,11.4,23.53,NNW,338,5.6,8.5,29,0.00,,---,0.00,VWS V14.01,2013-02-26 20:28:00,
2013-02-26 12:33:00,40.3,10.6,23.53,ENE,68,6.5,9.8,29,0.00,,---,0.00,VWS V14.01,2013-02-26 20:33:00,
2013-02-26 12:39:00,40.3,11.3,23.53,North,0,6.0,7.4,30,0.00,,---,0.00,VWS V14.01,2013-02-26 20:39:00,
2013-02-26 12:45:00,40.3,11.3,23.53,NNE,22,6.3,8.1,30,0.00,,---,0.00,VWS V14.01,2013-02-26 20:45:00,
2013-02-26 12:50:00,40.3,11.3,23.53,ENE,68,6.0,6.0,30,0.00,,---,0.00,VWS V14.01,2013-02-26 20:50:00,
2013-02-26 12:56:00,40.3,11.3,23.53,NNE,22,5.8,9.6,30,0.00,,---,0.00,VWS V14.01,2013-02-26 20:56:00,
2013-02-26 13:01:00,39.6,10.7,23.53,ENE,68,8.7,8.7,30,0.00,,---,0.00,VWS V14.01,2013-02-26 21:01:00,
2013-02-26 13:07:00,39.4,10.5,23.53,NE,45,8.1,12.3,30,0.00,,---,0.00,VWS V14.01,2013-02-26 21:07:00,
2013-02-26 13:12:00,39.6,10.7,23.53,North,0,7.6,8.7,30,0.00,,---,0.00,VWS V14.01,2013-02-26 21:12:00,
2013-02-26 13:18:00,39.2,10.4,23.53,NNW,338,7.2,9.2,30,0.00,,---,0.00,VWS V14.01,2013-02-26 21:18:00,
2013-02-26 13:24:00,39.0,10.2,23.53,NNW,338,4.9,9.8,30,0.00,,---,0.00,VWS V14.01,2013-02-26 21:24:00,
2013-02-26 13:29:00,39.4,10.5,23.53,NNW,338,9.8,9.8,30,0.00,,---,0.00,VWS V14.01,2013-02-26 21:29:00,
2013-02-26 13:35:00,39.2,10.4,23.53,NE,45,9.6,11.4,30,0.00,,---,0.00,VWS V14.01,2013-02-26 21:35:00,
2013-02-26 13:41:00,39.0,10.2,23.53,WSW,248,3.6,10.7,30,0.00,,---,0.00,VWS V14.01,2013-02-26 21:41:00,
2013-02-26 13:46:00,39.2,10.4,23.53,NNE,22,5.8,6.3,30,0.00,,---,0.00,VWS V14.01,2013-02-26 21:46:00,
2013-02-26 13:52:00,39.2,10.4,23.53,NNE,22,4.5,8.7,30,0.00,,---,0.00,VWS V14.01,2013-02-26 21:52:00,
2013-02-26 13:57:00,39.2,10.4,23.53,NE,45,3.1,10.3,30,0.00,,---,0.00,VWS V14.01,2013-02-26 21:57:00,
2013-02-26 14:03:00,39.4,10.5,23.53,NNE,22,4.3,4.3,30,0.00,,---,0.00,VWS V14.01,2013-02-26 22:03:00,
2013-02-26 14:08:00,39.4,10.5,23.53,NNE,22,5.8,5.8,30,0.00,,---,0.00,VWS V14.01,2013-02-26 22:08:00,
2013-02-26 14:14:00,39.6,10.7,23.53,East,90,5.4,5.8,30,0.00,,---,0.00,VWS V14.01,2013-02-26 22:14:00,
2013-02-26 14:20:00,39.6,9.9,23.53,NNW,338,6.0,6.3,29,0.00,,---,0.00,VWS V14.01,2013-02-26 22:20:00,
2013-02-26 14:25:00,39.7,10.9,23.53,North,0,6.0,6.0,30,0.00,,---,0.00,VWS V14.01,2013-02-26 22:25:00,
2013-02-26 14:31:00,39.9,11.0,23.53,NE,45,2.9,5.8,30,0.00,,---,0.00,VWS V14.01,2013-02-26 22:31:00,
2013-02-26 14:37:00,39.9,10.2,23.53,NNW,338,3.4,8.5,29,0.00,,---,0.00,VWS V14.01,2013-02-26 22:37:00,
2013-02-26 14:42:00,39.9,10.2,23.53,NNE,22,4.3,5.6,29,0.00,,---,0.00,VWS V14.01,2013-02-26 22:42:00,
2013-02-26 14:48:00,39.7,10.9,23.53,North,0,6.7,6.7,30,0.00,,---,0.00,VWS V14.01,2013-02-26 22:48:00,
2013-02-26 14:53:00,39.9,10.2,23.53,NNE,22,6.0,9.8,29,0.00,,---,0.00,VWS V14.01,2013-02-26 22:53:00,
2013-02-26 14:59:00,39.7,10.1,23.53,NNE,22,7.6,7.6,29,0.00,,---,0.00,VWS V14.01,2013-02-26 22:59:00,
2013-02-26 15:05:00,39.7,10.1,23.53,NE,45,5.4,7.8,29,0.00,,---,0.00,VWS V14.01,2013-02-26 23:05:00,
2013-02-26 15:10:00,39.9,10.2,23.53,NNE,22,3.1,6.3,29,0.00,,---,0.00,VWS V14.01,2013-02-26 23:10:00,
2013-02-26 15:16:00,40.1,10.4,23.53,NNE,22,6.9,6.9,29,0.00,,---,0.00,VWS V14.01,2013-02-26 23:16:00,
2013-02-26 15:21:00,39.6,9.9,23.53,NE,45,4.9,5.6,29,0.00,,---,0.00,VWS V14.01,2013-02-26 23:21:00,
2013-02-26 15:27:00,39.6,9.9,23.53,NNW,338,6.3,6.3,29,0.00,,---,0.00,VWS V14.01,2013-02-26 23:27:00,
2013-02-26 15:33:00,39.7,10.1,23.53,NNE,22,3.6,8.1,29,0.00,,---,0.00,VWS V14.01,2013-02-26 23:33:00,
2013-02-26 15:38:00,39.4,9.8,23.53,NNE,22,3.8,5.4,29,0.00,,---,0.00,VWS V14.01,2013-02-26 23:38:00,
2013-02-26 15:44:00,39.4,9.8,23.53,NNE,22,4.0,5.8,29,0.00,,---,0.00,VWS V14.01,2013-02-26 23:44:00,
2013-02-26 15:49:00,39.4,9.8,23.53,NNW,338,5.6,9.8,29,0.00,,---,0.00,VWS V14.01,2013-02-26 23:49:00,
2013-02-26 15:55:00,39.2,9.6,23.53,North,0,7.8,7.8,29,0.00,,---,0.00,VWS V14.01,2013-02-26 23:55:00,
2013-02-26 16:01:00,39.0,9.5,23.53,NNW,338,2.9,4.9,29,0.00,,---,0.00,VWS V14.01,2013-02-27 00:01:00,
2013-02-26 16:06:00,38.8,9.3,23.53,NNW,338,5.8,6.0,29,0.00,,---,0.00,VWS V14.01,2013-02-27 00:06:00,
2013-02-26 16:12:00,38.8,9.3,23.53,North,0,6.0,7.2,29,0.00,,---,0.00,VWS V14.01,2013-02-27 00:12:00,
2013-02-26 16:17:00,38.7,9.2,23.53,NNE,22,4.9,7.8,29,0.00,,---,0.00,VWS V14.01,2013-02-27 00:17:00,
2013-02-26 16:23:00,38.1,8.7,23.53,NE,45,3.1,8.1,29,0.00,,---,0.00,VWS V14.01,2013-02-27 00:23:00,
2013-02-26 16:29:00,38.1,8.7,23.53,North,0,5.8,7.6,29,0.00,,---,0.00,VWS V14.01,2013-02-27 00:29:00,
2013-02-26 16:34:00,37.8,8.4,23.53,NNE,22,4.3,8.5,29,0.00,,---,0.00,VWS V14.01,2013-02-27 00:34:00,
2013-02-26 16:39:00,37.6,8.2,23.53,NE,45,6.3,6.3,29,0.00,,---,0.00,VWS V14.01,2013-02-27 00:39:00,
2013-02-26 16:44:00,37.4,8.1,23.53,NNW,338,7.6,7.6,29,0.00,,---,0.00,VWS V14.01,2013-02-27 00:44:00,
2013-02-26 16:50:00,37.0,8.5,23.53,NNW,338,7.6,9.2,30,0.00,,---,0.00,VWS V14.01,2013-02-27 00:50:00,
2013-02-26 16:55:00,36.9,8.3,23.53,North,0,3.4,8.1,30,0.00,,---,0.00,VWS V14.01,2013-02-27 00:55:00,
2013-02-26 17:01:00,36.7,8.2,23.53,NNW,338,2.5,5.4,30,0.00,,---,0.00,VWS V14.01,2013-02-27 01:01:00,
2013-02-26 17:06:00,36.3,7.9,23.56,North,0,3.6,4.0,30,0.00,,---,0.00,VWS V14.01,2013-02-27 01:06:00,
2013-02-26 17:12:00,36.0,7.6,23.56,NNW,338,6.3,6.3,30,0.00,,---,0.00,VWS V14.01,2013-02-27 01:12:00,
2013-02-26 17:17:00,35.6,7.2,23.56,NNE,22,3.8,4.9,30,0.00,,---,0.00,VWS V14.01,2013-02-27 01:17:00,
2013-02-26 17:22:00,35.4,7.1,23.56,North,0,2.9,4.3,30,0.00,,---,0.00,VWS V14.01,2013-02-27 01:22:00,
2013-02-26 17:28:00,34.7,6.4,23.56,North,0,3.8,4.0,30,0.00,,---,0.00,VWS V14.01,2013-02-27 01:28:00,
2013-02-26 17:33:00,34.3,6.1,23.56,NNE,22,3.4,3.8,30,0.00,,---,0.00,VWS V14.01,2013-02-27 01:33:00,
2013-02-26 17:39:00,33.6,6.2,23.56,NNW,338,3.6,3.8,31,0.00,,---,0.00,VWS V14.01,2013-02-27 01:39:00,
2013-02-26 17:44:00,32.9,5.6,23.56,NNE,22,3.1,3.8,31,0.00,,---,0.00,VWS V14.01,2013-02-27 01:44:00,
2013-02-26 17:50:00,32.0,4.8,23.56,NNE,22,3.1,3.1,31,0.00,,---,0.00,VWS V14.01,2013-02-27 01:50:00,
2013-02-26 17:55:00,31.3,4.2,23.56,SE,135,3.6,4.3,31,0.00,,---,0.00,VWS V14.01,2013-02-27 01:55:00,
2013-02-26 18:01:00,30.9,3.8,23.56,North,0,0.0,0.0,31,0.00,,---,0.00,VWS V14.01,2013-02-27 02:01:00,
2013-02-26 18:07:00,30.0,3.8,23.56,NE,45,0.0,0.0,32,0.00,,---,0.00,VWS V14.01,2013-02-27 02:07:00,
2013-02-26 18:12:00,29.3,3.8,23.56,NNE,22,1.1,1.6,33,0.00,,---,0.00,VWS V14.01,2013-02-27 02:12:00,
2013-02-26 18:18:00,28.8,3.3,23.56,NNE,22,0.0,0.9,33,0.00,,---,0.00,VWS V14.01,2013-02-27 02:18:00,
2013-02-26 18:24:00,28.0,3.3,23.56,NNE,22,1.3,1.6,34,0.00,,---,0.00,VWS V14.01,2013-02-27 02:24:00,
2013-02-26 18:29:00,27.5,3.5,23.56,NNE,22,2.9,2.9,35,0.00,,---,0.00,VWS V14.01,2013-02-27 02:29:00,
2013-02-26 18:35:00,27.3,3.9,23.56,NNE,22,2.9,3.1,36,0.00,,---,0.00,VWS V14.01,2013-02-27 02:35:00,
2013-02-26 18:40:00,27.1,4.9,23.56,NNE,22,2.5,3.1,38,0.00,,---,0.00,VWS V14.01,2013-02-27 02:40:00,
2013-02-26 18:46:00,26.8,5.7,23.56,NNE,22,2.9,3.1,40,0.00,,---,0.00,VWS V14.01,2013-02-27 02:46:00,
2013-02-26 18:51:00,27.1,6.0,23.56,NNE,22,3.6,3.6,40,0.00,,---,0.00,VWS V14.01,2013-02-27 02:51:00,
2013-02-26 18:57:00,28.2,7.0,23.56,NE,45,3.1,3.4,40,0.00,,---,0.00,VWS V14.01,2013-02-27 02:57:00,
2013-02-26 19:03:00,28.6,6.8,23.56,NNE,22,2.7,2.7,39,0.00,,---,0.00,VWS V14.01,2013-02-27 03:03:00,
2013-02-26 19:08:00,28.0,6.8,23.56,NE,45,0.0,1.3,40,0.00,,---,0.00,VWS V14.01,2013-02-27 03:08:00,
2013-02-26 19:14:00,27.5,5.2,23.56,SSW,202,0.0,0.9,38,0.00,,---,0.00,VWS V14.01,2013-02-27 03:14:00,
2013-02-26 19:19:00,27.0,5.3,23.56,SSW,202,0.0,0.0,39,0.00,,---,0.00,VWS V14.01,2013-02-27 03:19:00,
2013-02-26 19:25:00,26.2,4.7,23.56,NNE,22,1.3,2.0,39,0.00,,---,0.00,VWS V14.01,2013-02-27 03:25:00,
2013-02-26 19:31:00,25.7,4.2,23.56,NNE,22,0.0,0.0,39,0.00,,---,0.00,VWS V14.01,2013-02-27 03:31:00,
2013-02-26 19:36:00,25.3,3.9,23.56,NE,45,0.0,0.0,39,0.00,,---,0.00,VWS V14.01,2013-02-27 03:36:00,
2013-02-26 19:41:00,25.3,3.3,23.56,ENE,68,0.0,0.0,38,0.00,,---,0.00,VWS V14.01,2013-02-27 03:41:00,
2013-02-26 19:46:00,25.2,3.7,23.56,South,180,0.0,1.3,39,0.00,,---,0.00,VWS V14.01,2013-02-27 03:46:00,
2013-02-26 19:52:00,25.0,4.1,23.59,SSW,202,0.0,0.0,40,0.00,,---,0.00,VWS V14.01,2013-02-27 03:52:00,
2013-02-26 19:57:00,24.6,4.8,23.59,North,0,0.0,0.0,42,0.00,,---,0.00,VWS V14.01,2013-02-27 03:57:00,
2013-02-26 20:03:00,24.3,4.5,23.59,ENE,68,0.0,0.0,42,0.00,,---,0.00,VWS V14.01,2013-02-27 04:03:00,
2013-02-26 20:08:00,23.9,4.2,23.59,ENE,68,0.0,0.0,42,0.00,,---,0.00,VWS V14.01,2013-02-27 04:08:00,
2013-02-26 20:14:00,23.4,3.7,23.59,ENE,68,0.0,0.0,42,0.00,,---,0.00,VWS V14.01,2013-02-27 04:14:00,
2013-02-26 20:20:00,23.0,3.8,23.59,NNE,22,0.0,0.0,43,0.00,,---,0.00,VWS V14.01,2013-02-27 04:20:00,
2013-02-26 20:25:00,22.8,3.7,23.59,NE,45,2.0,2.0,43,0.00,,---,0.00,VWS V14.01,2013-02-27 04:25:00,
2013-02-26 20:31:00,22.8,4.2,23.59,NNE,22,1.3,2.5,44,0.00,,---,0.00,VWS V14.01,2013-02-27 04:31:00,
2013-02-26 20:36:00,22.8,4.2,23.62,NNE,22,0.0,0.0,44,0.00,,---,0.00,VWS V14.01,2013-02-27 04:36:00,
2013-02-26 20:42:00,22.8,4.2,23.62,South,180,0.0,0.0,44,0.00,,---,0.00,VWS V14.01,2013-02-27 04:42:00,
2013-02-26 20:48:00,22.6,4.0,23.62,SSW,202,0.0,0.0,44,0.00,,---,0.00,VWS V14.01,2013-02-27 04:48:00,
2013-02-26 20:53:00,22.5,3.9,23.62,SSW,202,0.0,0.0,44,0.00,,---,0.00,VWS V14.01,2013-02-27 04:53:00,
2013-02-26 20:59:00,22.3,4.2,23.62,NNE,22,0.0,0.0,45,0.00,,---,0.00,VWS V14.01,2013-02-27 04:59:00,
2013-02-26 21:00:00,22.3,4.2,23.62,NNE,22,0.0,0.0,45,0.00,,---,0.00,VWS V14.01,2013-02-27 05:00:00,
2013-02-26 21:01:00,22.3,4.2,23.62,NNE,22,0.0,0.0,45,0.00,,---,0.00,VWS V14.01,2013-02-27 05:01:00,
2013-02-26 21:03:00,22.1,4.0,23.62,NNE,22,1.6,1.6,45,0.00,,---,0.00,VWS V14.01,2013-02-27 05:03:00,
2013-02-26 21:06:00,21.9,3.8,23.62,NNE,22,1.3,2.5,45,0.00,,---,0.00,VWS V14.01,2013-02-27 05:06:00,